WetterOnline ( http://www.wetteronline.de )

Wetter aktuell Lage

Aktuelles Wetter: Lügde-Paenbruch (260m)

6-stündlich | Neueste Meldungen
Ortszeit Temperatur Wetter
Mi, 26.09. 8:00 6.4° C bewölkt
Mi, 26.09. 2:00 4.6° C leicht bewölkt
Di, 25.09. 20:00 7.9° C wolkig
Di, 25.09. 14:00 11.9° C wolkig
Di, 25.09. 8:00 4.3° C bewölkt
Di, 25.09. 2:00 5.5° C wolkig
Mo, 24.09. 20:00 7.5° C wolkenlos
Mo, 24.09. 14:00 12.7° C wolkig
Ortszeit Temperatur Wetter
Mi, 26.09. 12:00 12.0° C leicht bewölkt
Mi, 26.09. 11:50 12.0° C wolkig
Mi, 26.09. 11:40 11.6° C wolkig
Mi, 26.09. 11:30 11.2° C leicht bewölkt
Mi, 26.09. 11:20 11.2° C leicht bewölkt
Mi, 26.09. 11:10 10.5° C wolkig
Mi, 26.09. 11:00 10.1° C bewölkt
Mi, 26.09. 10:30 9.7° C bedeckt
Mi, 26.09. 10:00 8.7° C bedeckt
Mi, 26.09. 9:30 7.6° C bedeckt
Mi, 26.09. 9:00 7.1° C bedeckt
Ortszeit Relative Feuchte Sichtweite
Mi, 26.09. 8:00 78% 70 km
Mi, 26.09. 2:00 88% 55 km
Di, 25.09. 20:00 81% 70 km
Di, 25.09. 14:00 60% 70 km
Di, 25.09. 8:00 100% 1.3 km
Di, 25.09. 2:00 97% 35 km
Mo, 24.09. 20:00 81% 70 km
Mo, 24.09. 14:00 61% 50 km
Ortszeit Relative Feuchte Sichtweite
Mi, 26.09. 12:00 56% 45 km
Mi, 26.09. 11:50 56% -
Mi, 26.09. 11:40 59% -
Mi, 26.09. 11:30 62% 40 km
Mi, 26.09. 11:20 62% -
Mi, 26.09. 11:10 61% -
Mi, 26.09. 11:00 61% 55 km
Mi, 26.09. 10:30 63% 70 km
Mi, 26.09. 10:00 66% 70 km
Mi, 26.09. 9:30 73% 70 km
Mi, 26.09. 9:00 73% 70 km
Ortszeit Niederschlagsmenge Niederschlagsart
Mi, 26.09. 8:00 0.0 l/m2 in 12 Std. -
Mi, 26.09. 2:00 0.0 l/m2 in 6 Std. -
Di, 25.09. 20:00 0.0 l/m2 in 12 Std. -
Di, 25.09. 14:00 0.0 l/m2 in 6 Std. -
Di, 25.09. 8:00 0.1 l/m2 in 12 Std. Regen
Di, 25.09. 2:00 0.0 l/m2 in 6 Std. -
Mo, 24.09. 20:00 4 l/m2 in 12 Std. Regen
Mo, 24.09. 14:00 0.1 l/m2 in 6 Std. Regen
Ortszeit Niederschlagsmenge Niederschlagsart
Mi, 26.09. 12:00 0.0 l/m2 in 1 Std. -
Mi, 26.09. 11:50 keine Meldung -
Mi, 26.09. 11:40 keine Meldung -
Mi, 26.09. 11:30 0.0 l/m2 in 1 Std. -
Mi, 26.09. 11:20 keine Meldung -
Mi, 26.09. 11:10 keine Meldung -
Mi, 26.09. 11:00 0.0 l/m2 in 1 Std. -
Mi, 26.09. 10:30 0.0 l/m2 in 1 Std. -
Mi, 26.09. 10:00 0.0 l/m2 in 1 Std. -
Mi, 26.09. 9:30 0.0 l/m2 in 1 Std. -
Mi, 26.09. 9:00 0.0 l/m2 in 1 Std. -
Ortszeit Stärke Spitze Richtung
km/h Bft. km/h Grad Sektor
Mi, 26.09. 8:00 7 2 13 240° SW
Mi, 26.09. 2:00 2 1 11 240° SW
Di, 25.09. 20:00 4 1 22 200° S
Di, 25.09. 14:00 7 2 22 300° NW
Di, 25.09. 8:00 4 1 18 170° S
Di, 25.09. 2:00 7 2 29 110° O
Mo, 24.09. 20:00 20 4 50 290° W
Mo, 24.09. 14:00 22 4 40 290° W
Ortszeit Stärke Spitze Richtung
km/h Bft. km/h Grad Sektor
Mi, 26.09. 12:00 18 3 29 200° S
Mi, 26.09. 11:50 18 3 - 200° S
Mi, 26.09. 11:40 20 4 - 200° S
Mi, 26.09. 11:30 14 3 29 210° SW
Mi, 26.09. 11:20 14 3 - 210° SW
Mi, 26.09. 11:10 15 3 - 210° SW
Mi, 26.09. 11:00 14 3 25 230° SW
Mi, 26.09. 10:30 11 2 18 220° SW
Mi, 26.09. 10:00 9 2 17 230° SW
Mi, 26.09. 9:30 9 2 17 220° SW
Mi, 26.09. 9:00 11 2 22 220° SW
Ortszeit Untergrenze Bedeckung Gattung
total tief tief mittel hoch
Mi, 26.09. 8:00 6600 m 8/8 6/8 - - -
Mi, 26.09. 2:00 9000 m 4/8 0/8 - - -
Di, 25.09. 20:00 1500 m 8/8 1/8 - - -
Di, 25.09. 14:00 1050 m 6/8 6/8 - - -
Di, 25.09. 8:00 <30 m 7/8 7/8 - - -
Di, 25.09. 2:00 1170 m 7/8 - - - -
Mo, 24.09. 20:00 - 0/8 0/8 - - -
Mo, 24.09. 14:00 1020 m 5/8 5/8 - - -
Ortszeit Bedeckungsgrad in Achtel und Wolkenuntergrenze
Mi, 26.09. 12:00 4(7500m) 5(8100m) 7(9000m)
Mi, 26.09. 11:50 4(7500m) 5(8100m) 7(9000m)
Mi, 26.09. 11:40 7(7500m)
Mi, 26.09. 11:30 3(6900m) 5(7800m)
Mi, 26.09. 11:20 3(6900m) 5(7800m)
Mi, 26.09. 11:10 3(6300m) 4(6900m) 6(7800m)
Mi, 26.09. 11:00 8(6300m) 7(6900m) 7(7800m)
Mi, 26.09. 10:30 8(6600m)
Mi, 26.09. 10:00 8(6600m)
Mi, 26.09. 9:30 7(6000m) 8(6600m) 8(7800m)
Mi, 26.09. 9:00 8(5400m)
Ortszeit Luftdruck NN (hPa) Tendenz (hPa in 3 Std.)
Mi, 26.09. 8:00 1035 - 0,9
Mi, 26.09. 2:00 1038 - 1,1
Di, 25.09. 20:00 1039 + 0,5
Di, 25.09. 14:00 1039 + 0,3
Di, 25.09. 8:00 1039 + 1,0
Di, 25.09. 2:00 1037 + 1,5
Mo, 24.09. 20:00 1033 + 1,3
Mo, 24.09. 14:00 1030 + 0,6
Ortszeit Luftdruck NN (hPa) Tendenz (hPa in 3 Std.)
Mi, 26.09. 12:00 1034 - 0,2
Mi, 26.09. 11:50 1034 keine Meldung
Mi, 26.09. 11:40 1034 keine Meldung
Mi, 26.09. 11:30 1034 - 0,1
Mi, 26.09. 11:20 1034 keine Meldung
Mi, 26.09. 11:10 1035 keine Meldung
Mi, 26.09. 11:00 1035 - 0,2
Mi, 26.09. 10:30 1035 - 0,2
Mi, 26.09. 10:00 1035 - 0,3
Mi, 26.09. 9:30 1035 - 0,3
Mi, 26.09. 9:00 1035 - 0,8
Ortszeit Schneehöhe (cm)
Mi, 26.09. 8:00 -
Mi, 26.09. 2:00 -
Di, 25.09. 20:00 -
Di, 25.09. 14:00 -
Di, 25.09. 8:00 -
Di, 25.09. 2:00 -
Mo, 24.09. 20:00 -
Mo, 24.09. 14:00 -
Ortszeit Schneehöhe (cm)
Mi, 26.09. 12:00 -
Mi, 26.09. 11:50 -
Mi, 26.09. 11:40 -
Mi, 26.09. 11:30 -
Mi, 26.09. 11:20 -
Mi, 26.09. 11:10 -
Mi, 26.09. 11:00 -
Mi, 26.09. 10:30 -
Mi, 26.09. 10:00 -
Mi, 26.09. 9:30 -
Mi, 26.09. 9:00 -
Link zu dieser Seite / Seite empfehlen

Das Wetter in ...